| time (UTC) | temp F | wind direction | speed MPH | gust MPH | rain 1hr in | rain 24hr in | rain mn in | humidity % | barometer mb |
| 20260902140518 | 73 | 135 | 1.0 | 3.0 | 0.00 | 0.27 | 0.00 | 97 | 1019.5 |
| 20260902135517 | 72 | 135 | 1.0 | 3.0 | 0.00 | 0.27 | 0.00 | 98 | 1019.6 |
| 20260902134517 | 72 | 158 | 1.0 | 4.0 | 0.00 | 0.27 | 0.00 | 98 | 1019.4 |
| 20260902133517 | 72 | 158 | 1.0 | 3.0 | 0.00 | 0.27 | 0.00 | 98 | 1019.2 |
| 20260902132518 | 72 | 135 | 1.0 | 2.0 | 0.00 | 0.27 | 0.00 | 98 | 1019.2 |
| 20260902131517 | 72 | 135 | 1.0 | 4.0 | 0.00 | 0.27 | 0.00 | 98 | 1019.1 |
| 20260902130517 | 72 | 0.0 | 2.0 | 0.00 | 0.27 | 0.00 | 98 | 1019.2 | |
| 20260902125538 | 71 | 113 | 2.0 | 5.0 | 0.00 | 0.27 | 0.00 | 98 | 1019.0 |
| 20260902124518 | 71 | 158 | 2.0 | 4.0 | 0.00 | 0.27 | 0.00 | 98 | 1019.0 |
| 20260902123517 | 71 | 135 | 2.0 | 5.0 | 0.00 | 0.27 | 0.00 | 98 | 1019.0 |
| 20260902122518 | 71 | 113 | 2.0 | 9.0 | 0.00 | 0.27 | 0.00 | 98 | 1018.8 |
| 20260902121517 | 71 | 113 | 2.0 | 6.0 | 0.00 | 0.27 | 0.00 | 98 | 1018.6 |
| 20260902120517 | 71 | 135 | 2.0 | 5.0 | 0.00 | 0.27 | 0.00 | 98 | 1018.6 |
| 20260902115517 | 71 | 113 | 2.0 | 6.0 | 0.00 | 0.27 | 0.00 | 98 | 1018.6 |
| 20260902114517 | 71 | 90 | 2.0 | 4.0 | 0.00 | 0.27 | 0.00 | 98 | 1018.7 |
| 20260902113517 | 71 | 90 | 1.0 | 3.0 | 0.00 | 0.27 | 0.00 | 98 | 1018.7 |
| 20260902112517 | 71 | 90 | 1.0 | 4.0 | 0.00 | 0.27 | 0.00 | 98 | 1018.7 |
| 20260902111517 | 71 | 90 | 1.0 | 3.0 | 0.00 | 0.27 | 0.00 | 98 | 1018.6 |
| 20260902110517 | 71 | 113 | 1.0 | 2.0 | 0.00 | 0.27 | 0.00 | 98 | 1018.5 |
| 20260902105517 | 71 | 113 | 1.0 | 5.0 | 0.00 | 0.27 | 0.00 | 98 | 1018.6 |
| 20260902104517 | 71 | 0.0 | 2.0 | 0.00 | 0.27 | 0.00 | 98 | 1018.4 | |
| 20260902103517 | 71 | 158 | 3.0 | 6.0 | 0.00 | 0.27 | 0.00 | 98 | 1018.3 |
| 20260902102517 | 71 | 113 | 1.0 | 2.0 | 0.00 | 0.27 | 0.00 | 98 | 1018.3 |
| 20260902101517 | 71 | 113 | 2.0 | 5.0 | 0.00 | 0.27 | 0.00 | 98 | 1018.3 |
| 20260902100517 | 71 | 90 | 1.0 | 3.0 | 0.00 | 0.27 | 0.00 | 98 | 1018.3 |
| 20260902095537 | 71 | 90 | 2.0 | 4.0 | 0.00 | 0.27 | 0.00 | 98 | 1018.2 |
| 20260902094518 | 71 | 113 | 1.0 | 2.0 | 0.00 | 0.27 | 0.00 | 98 | 1018.0 |
| 20260902093517 | 71 | 135 | 1.0 | 4.0 | 0.00 | 0.27 | 0.00 | 98 | 1018.0 |
| 20260902092557 | 71 | 135 | 2.0 | 6.0 | 0.00 | 0.27 | 0.00 | 98 | 1017.9 |
| 20260902091517 | 72 | 90 | 1.0 | 3.0 | 0.00 | 0.27 | 0.00 | 98 | 1017.9 |
| 20260902090517 | 72 | 135 | 1.0 | 4.0 | 0.00 | 0.27 | 0.00 | 98 | 1017.7 |
| 20260902085516 | 72 | 135 | 1.0 | 3.0 | 0.00 | 0.27 | 0.00 | 98 | 1017.8 |
| 20260902084516 | 72 | 135 | 1.0 | 5.0 | 0.00 | 0.27 | 0.00 | 98 | 1017.7 |
| 20260902083537 | 72 | 135 | 1.0 | 3.0 | 0.00 | 0.27 | 0.00 | 98 | 1017.7 |
| 20260902082517 | 72 | 135 | 1.0 | 3.0 | 0.00 | 0.27 | 0.00 | 98 | 1017.6 |
| 20260902081537 | 72 | 0.0 | 2.0 | 0.00 | 0.27 | 0.00 | 98 | 1017.5 | |
| 20260902080517 | 72 | 113 | 1.0 | 4.0 | 0.00 | 0.27 | 0.00 | 98 | 1017.4 |
| 20260902075517 | 72 | 113 | 1.0 | 4.0 | 0.00 | 0.27 | 0.00 | 98 | 1017.3 |
| 20260902074516 | 72 | 113 | 1.0 | 2.0 | 0.00 | 0.27 | 0.00 | 98 | 1017.3 |
| 20260902073537 | 72 | 113 | 2.0 | 5.0 | 0.00 | 0.27 | 0.00 | 98 | 1017.2 |
| 20260902072517 | 72 | 0.0 | 3.0 | 0.00 | 0.27 | 0.00 | 98 | 1017.3 | |
| 20260902071517 | 72 | 0.0 | 3.0 | 0.00 | 0.27 | 0.00 | 98 | 1017.1 | |
| 20260902070516 | 72 | 0.0 | 1.0 | 0.00 | 0.27 | 0.00 | 98 | 1017.2 | |
| 20260902065516 | 72 | 0.0 | 0.0 | 0.00 | 0.27 | 0.00 | 98 | 1017.0 | |
| 20260902064516 | 71 | 0.0 | 1.0 | 0.00 | 0.27 | 0.00 | 98 | 1016.7 | |
| 20260902063516 | 71 | 0.0 | 1.0 | 0.00 | 0.27 | 0.00 | 98 | 1016.7 | |
| 20260902062516 | 72 | 0.0 | 1.0 | 0.00 | 0.27 | 0.00 | 97 | 1016.6 | |
| 20260902061516 | 72 | 0.0 | 1.0 | 0.00 | 0.27 | 0.00 | 98 | 1016.8 | |
| 20260902060516 | 72 | 0.0 | 0.0 | 0.00 | 0.27 | 0.00 | 98 | 1016.9 | |
| 20260902055516 | 72 | 0.0 | 1.0 | 0.00 | 0.27 | 0.00 | 98 | 1017.0 | |
| 20260902054537 | 72 | 0.0 | 1.0 | 0.00 | 0.27 | 0.00 | 97 | 1016.8 | |
| 20260902053516 | 72 | 0.0 | 1.0 | 0.00 | 0.27 | 0.00 | 97 | 1016.9 | |
| 20260902052517 | 72 | 0.0 | 0.0 | 0.00 | 0.27 | 0.00 | 97 | 1017.1 | |
| 20260902051516 | 72 | 0.0 | 0.0 | 0.00 | 0.27 | 0.00 | 98 | 1017.1 | |
| 20260902050516 | 72 | 0.0 | 2.0 | 0.00 | 0.27 | 0.00 | 97 | 1016.9 | |
| 20260902045517 | 72 | 0.0 | 1.0 | 0.00 | 0.27 | 0.00 | 97 | 1016.8 | |
| 20260902044516 | 72 | 0.0 | 1.0 | 0.00 | 0.27 | 0.00 | 97 | 1016.5 | |
| 20260902043516 | 72 | 0.0 | 0.0 | 0.00 | 0.27 | 0.00 | 97 | 1016.8 | |
| 20260902042516 | 72 | 0.0 | 1.0 | 0.00 | 0.27 | 0.00 | 97 | 1017.1 | |
| 20260902041516 | 72 | 0.0 | 1.0 | 0.00 | 0.27 | 0.00 | 97 | 1016.8 | |
| 20260902040516 | 72 | 0.0 | 1.0 | 0.00 | 0.27 | 0.00 | 97 | 1016.9 | |
| 20260902035517 | 71 | 0.0 | 1.0 | 0.01 | 0.27 | 0.27 | 97 | 1016.9 | |
| 20260902034517 | 71 | 0.0 | 2.0 | 0.01 | 0.27 | 0.27 | 97 | 1016.6 | |
| 20260902033517 | 71 | 0.0 | 1.0 | 0.01 | 0.27 | 0.27 | 97 | 1016.3 | |
| 20260902032517 | 71 | 68 | 1.0 | 3.0 | 0.01 | 0.27 | 0.27 | 97 | 1016.4 |
| 20260902031516 | 71 | 0.0 | 1.0 | 0.01 | 0.27 | 0.27 | 96 | 1016.5 | |
| 20260902030517 | 71 | 68 | 1.0 | 2.0 | 0.01 | 0.27 | 0.27 | 96 | 1016.0 |
| 20260902025517 | 71 | 0.0 | 2.0 | 0.00 | 0.26 | 0.26 | 96 | 1015.8 | |
| 20260902024517 | 71 | 113 | 1.0 | 2.0 | 0.00 | 0.26 | 0.26 | 96 | 1015.7 |
| 20260902023516 | 71 | 0.0 | 1.0 | 0.00 | 0.26 | 0.26 | 96 | 1016.2 | |
| 20260902022516 | 71 | 113 | 2.0 | 6.0 | 0.00 | 0.26 | 0.26 | 96 | 1015.8 |
| 20260902021516 | 71 | 248 | 1.0 | 3.0 | 0.00 | 0.26 | 0.26 | 95 | 1015.7 |
| 20260902020517 | 71 | 0.0 | 1.0 | 0.08 | 0.26 | 0.26 | 94 | 1015.1 | |
| 20260902015516 | 71 | 0.0 | 1.0 | 0.24 | 0.26 | 0.26 | 94 | 1015.2 | |
| 20260902014517 | 71 | 0.0 | 2.0 | 0.25 | 0.26 | 0.26 | 94 | 1015.4 | |
| 20260902013517 | 72 | 203 | 2.0 | 6.0 | 0.25 | 0.26 | 0.26 | 93 | 1015.3 |
| 20260902012517 | 72 | 225 | 1.0 | 3.0 | 0.26 | 0.26 | 0.26 | 92 | 1014.6 |
| 20260902011516 | 73 | 315 | 5.0 | 12.0 | 0.26 | 0.26 | 0.26 | 91 | 1014.8 |
| 20260902010516 | 75 | 90 | 7.0 | 15.0 | 0.18 | 0.18 | 0.18 | 87 | 1015.6 |
| 20260902005516 | 81 | 293 | 4.0 | 10.0 | 0.02 | 0.02 | 0.02 | 89 | 1015.4 |
| 20260902004516 | 82 | 270 | 1.0 | 2.0 | 0.01 | 0.01 | 0.01 | 90 | 1013.5 |
| 20260902003516 | 83 | 0.0 | 2.0 | 0.01 | 0.01 | 0.01 | 88 | 1012.9 | |
| 20260902002536 | 83 | 270 | 1.0 | 2.0 | 0.00 | 0.00 | 0.00 | 87 | 1012.8 |
| 20260902001516 | 83 | 0.0 | 0.0 | 0.00 | 0.00 | 0.00 | 87 | 1012.9 | |
| 20260902000517 | 84 | 0.0 | 0.0 | 0.00 | 0.00 | 0.00 | 86 | 1013.1 | |
| 20260901235516 | 84 | 0.0 | 0.0 | 0.00 | 0.00 | 0.00 | 84 | 1012.8 | |
| 20260901234516 | 85 | 0.0 | 0.0 | 0.00 | 0.00 | 0.00 | 84 | 1012.5 | |
| 20260901233517 | 86 | 0.0 | 0.0 | 0.00 | 0.00 | 0.00 | 83 | 1012.8 | |
| 20260901232517 | 86 | 0.0 | 0.0 | 0.00 | 0.00 | 0.00 | 82 | 1013.1 | |
| 20260901231536 | 87 | 0.0 | 0.0 | 0.00 | 0.00 | 0.00 | 80 | 1013.1 | |
| 20260901230516 | 88 | 0.0 | 0.0 | 0.00 | 0.00 | 0.00 | 78 | 1013.2 | |
| 20260901225516 | 89 | 0.0 | 0.0 | 0.00 | 0.00 | 0.00 | 76 | 1013.1 | |
| 20260901224517 | 89 | 0.0 | 2.0 | 0.00 | 0.00 | 0.00 | 75 | 1013.4 | |
| 20260901223516 | 89 | 0.0 | 2.0 | 0.00 | 0.00 | 0.00 | 74 | 1013.3 | |
| 20260901222537 | 89 | 0.0 | 2.0 | 0.00 | 0.00 | 0.00 | 74 | 1013.2 | |
| 20260901221536 | 89 | 270 | 2.0 | 3.0 | 0.00 | 0.00 | 0.00 | 73 | 1013.2 |
| 20260901220516 | 89 | 270 | 1.0 | 4.0 | 0.00 | 0.00 | 0.00 | 73 | 1013.2 |
| 20260901215516 | 90 | 293 | 2.0 | 7.0 | 0.00 | 0.00 | 0.00 | 71 | 1013.6 |
| 20260901214516 | 90 | 293 | 3.0 | 8.0 | 0.00 | 0.00 | 0.00 | 71 | 1013.7 |
| 20260901213516 | 90 | 315 | 3.0 | 5.0 | 0.00 | 0.00 | 0.00 | 72 | 1013.6 |
| 20260901212516 | 90 | 270 | 3.0 | 5.0 | 0.00 | 0.00 | 0.00 | 73 | 1013.6 |
| 20260901211536 | 90 | 270 | 3.0 | 9.0 | 0.00 | 0.00 | 0.00 | 71 | 1013.7 |
| 20260901210516 | 91 | 315 | 3.0 | 8.0 | 0.00 | 0.00 | 0.00 | 71 | 1013.6 |
| 20260901205536 | 91 | 270 | 3.0 | 8.0 | 0.00 | 0.00 | 0.00 | 72 | 1013.7 |
| 20260901204516 | 91 | 315 | 4.0 | 10.0 | 0.00 | 0.00 | 0.00 | 71 | 1013.8 |
| 20260901203516 | 91 | 315 | 3.0 | 8.0 | 0.00 | 0.00 | 0.00 | 71 | 1013.8 |
| 20260901202516 | 90 | 315 | 3.0 | 6.0 | 0.00 | 0.00 | 0.00 | 72 | 1013.8 |
| 20260901201516 | 90 | 293 | 3.0 | 8.0 | 0.00 | 0.00 | 0.00 | 72 | 1013.8 |
| 20260901200536 | 90 | 315 | 5.0 | 11.0 | 0.00 | 0.00 | 0.00 | 72 | 1013.7 |
| 20260901195536 | 90 | 315 | 4.0 | 8.0 | 0.00 | 0.00 | 0.00 | 72 | 1013.8 |
| 20260901194516 | 90 | 315 | 4.0 | 9.0 | 0.00 | 0.00 | 0.00 | 73 | 1013.8 |
| 20260901193536 | 90 | 293 | 3.0 | 8.0 | 0.00 | 0.00 | 0.00 | 72 | 1014.1 |
| 20260901192516 | 90 | 293 | 4.0 | 10.0 | 0.00 | 0.00 | 0.00 | 73 | 1014.2 |
| 20260901191516 | 90 | 270 | 4.0 | 9.0 | 0.00 | 0.00 | 0.00 | 73 | 1014.3 |
| 20260901190537 | 89 | 270 | 3.0 | 8.0 | 0.00 | 0.00 | 0.00 | 72 | 1014.2 |
| 20260901185515 | 90 | 293 | 3.0 | 7.0 | 0.00 | 0.00 | 0.00 | 72 | 1014.3 |
| 20260901184516 | 89 | 315 | 3.0 | 9.0 | 0.00 | 0.00 | 0.00 | 74 | 1014.2 |
| 20260901183516 | 89 | 315 | 4.0 | 9.0 | 0.00 | 0.00 | 0.00 | 74 | 1014.3 |
| 20260901182535 | 89 | 315 | 3.0 | 8.0 | 0.00 | 0.00 | 0.00 | 74 | 1014.3 |
| 20260901181516 | 88 | 293 | 3.0 | 7.0 | 0.00 | 0.00 | 0.00 | 76 | 1014.7 |
| 20260901180516 | 88 | 293 | 1.0 | 4.0 | 0.00 | 0.00 | 0.00 | 76 | 1014.9 |
| 20260901175515 | 88 | 315 | 3.0 | 5.0 | 0.00 | 0.00 | 0.00 | 78 | 1014.9 |
| 20260901174536 | 87 | 293 | 3.0 | 5.0 | 0.00 | 0.00 | 0.00 | 83 | 1015.0 |
| 20260901173516 | 86 | 293 | 1.0 | 4.0 | 0.00 | 0.00 | 0.00 | 82 | 1015.0 |
| 20260901172556 | 85 | 293 | 1.0 | 3.0 | 0.00 | 0.00 | 0.00 | 83 | 1014.9 |
| 20260901171516 | 85 | 293 | 1.0 | 3.0 | 0.00 | 0.00 | 0.00 | 84 | 1015.0 |
| 20260901170515 | 85 | 293 | 1.0 | 3.0 | 0.00 | 0.00 | 0.00 | 84 | 1015.3 |
| 20260901165515 | 84 | 293 | 1.0 | 2.0 | 0.00 | 0.00 | 0.00 | 84 | 1015.4 |
| 20260901164515 | 84 | 293 | 2.0 | 4.0 | 0.00 | 0.00 | 0.00 | 84 | 1015.8 |
| 20260901163555 | 84 | 0.0 | 1.0 | 0.00 | 0.00 | 0.00 | 85 | 1015.6 | |
| 20260901162515 | 84 | 293 | 1.0 | 3.0 | 0.00 | 0.00 | 0.00 | 84 | 1015.7 |
| 20260901161518 | 84 | 293 | 1.0 | 2.0 | 0.00 | 0.00 | 0.00 | 84 | 1015.6 |
| 20260901160517 | 84 | 293 | 1.0 | 4.0 | 0.00 | 0.00 | 0.00 | 83 | 1015.6 |
| 20260901155517 | 84 | 293 | 1.0 | 3.0 | 0.00 | 0.00 | 0.00 | 83 | 1015.6 |
| 20260901154518 | 85 | 293 | 1.0 | 4.0 | 0.00 | 0.00 | 0.00 | 82 | 1015.7 |
| 20260901153518 | 84 | 315 | 2.0 | 5.0 | 0.00 | 0.00 | 0.00 | 83 | 1015.8 |
| 20260901152517 | 84 | 315 | 2.0 | 5.0 | 0.00 | 0.00 | 0.00 | 82 | 1015.9 |
| 20260901151517 | 85 | 293 | 3.0 | 8.0 | 0.00 | 0.00 | 0.00 | 84 | 1015.9 |
| 20260901150517 | 83 | 270 | 3.0 | 5.0 | 0.00 | 0.00 | 0.00 | 87 | 1016.0 |
| 20260901145517 | 83 | 293 | 4.0 | 10.0 | 0.00 | 0.00 | 0.00 | 85 | 1016.1 |
| 20260901144517 | 83 | 315 | 2.0 | 4.0 | 0.00 | 0.00 | 0.00 | 87 | 1015.9 |
| 20260901143518 | 82 | 315 | 2.0 | 5.0 | 0.00 | 0.00 | 0.00 | 88 | 1016.0 |
| 20260901142518 | 82 | 315 | 1.0 | 4.0 | 0.00 | 0.00 | 0.00 | 88 | 1015.8 |
| 20260901141517 | 81 | 315 | 3.0 | 7.0 | 0.00 | 0.00 | 0.00 | 87 | 1015.8 |